createdAt,value
2019-04-03T00:02:30.905Z,97704.28
2019-04-03T00:05:44.644Z,97705.84
2019-04-03T00:08:58.235Z,97693.42
2019-04-03T00:12:11.694Z,97694.09
2019-04-03T00:15:25.258Z,97700.88
2019-04-03T00:18:38.839Z,97693.31
2019-04-03T00:21:52.306Z,97677.02
2019-04-03T00:25:06.198Z,97684.73
2019-04-03T00:28:22.022Z,97688.81
2019-04-03T00:31:35.404Z,97688.81
2019-04-03T00:34:48.985Z,97687.02
2019-04-03T00:38:02.573Z,97688.56
2019-04-03T00:41:16.056Z,97692.54
2019-04-03T00:44:29.540Z,97690.53
2019-04-03T00:47:43.111Z,97692.06
2019-04-03T00:50:57.612Z,97689.19
2019-04-03T00:54:11.447Z,97689.64
2019-04-03T00:57:26.343Z,97680.12
2019-04-03T01:00:40.553Z,97676.00
2019-04-03T01:03:54.143Z,97663.45
2019-04-03T01:07:07.606Z,97662.16
2019-04-03T01:10:21.383Z,97659.27
2019-04-03T01:13:35.125Z,97653.02
2019-04-03T01:16:48.971Z,97645.16
2019-04-03T01:20:06.058Z,97642.22
2019-04-03T01:23:19.316Z,97645.48
2019-04-03T01:26:32.743Z,97646.74
2019-04-03T01:29:46.490Z,97644.34
2019-04-03T01:33:00.015Z,97634.46
2019-04-03T01:36:13.463Z,97633.61
2019-04-03T01:39:26.944Z,97631.18
2019-04-03T01:42:40.416Z,97621.39
2019-04-03T01:45:56.507Z,97620.14
2019-04-03T01:49:09.269Z,97625.45
2019-04-03T01:52:23.142Z,97627.85
2019-04-03T01:55:36.630Z,97624.13
2019-04-03T01:58:50.082Z,97622.39
2019-04-03T02:02:04.036Z,97618.67
2019-04-03T02:05:17.905Z,97617.58
2019-04-03T02:08:31.459Z,97619.88
2019-04-03T02:11:45.021Z,97612.70
2019-04-03T02:14:58.608Z,97616.73
2019-04-03T02:18:12.065Z,97615.08
2019-04-03T02:21:27.168Z,97609.97
2019-04-03T02:24:41.080Z,97605.61
2019-04-03T02:27:54.598Z,97599.62
2019-04-03T02:31:08.079Z,97591.52
2019-04-03T02:34:21.548Z,97589.89
2019-04-03T02:37:35.110Z,97592.06
2019-04-03T02:40:48.595Z,97575.47
2019-04-03T02:44:02.347Z,97577.56
2019-04-03T02:47:15.807Z,97575.17
2019-04-03T02:50:29.382Z,97573.08
2019-04-03T02:53:43.493Z,97569.37
2019-04-03T02:56:57.774Z,97567.91
2019-04-03T03:00:11.741Z,97572.81
2019-04-03T03:03:25.197Z,97572.86
2019-04-03T03:06:38.952Z,97578.83
2019-04-03T03:09:53.401Z,97583.82
2019-04-03T03:13:08.523Z,97580.41
2019-04-03T03:16:22.130Z,97583.17
2019-04-03T03:19:36.351Z,97582.10
2019-04-03T03:22:51.283Z,97585.48
2019-04-03T03:26:06.182Z,97586.45
2019-04-03T03:29:25.687Z,97581.16
2019-04-03T03:32:37.316Z,97580.52
2019-04-03T03:35:52.227Z,97577.88
2019-04-03T03:39:06.379Z,97577.31
2019-04-03T03:42:20.957Z,97574.95
2019-04-03T03:45:35.369Z,97559.13
2019-04-03T03:48:49.250Z,97546.92
2019-04-03T03:52:05.212Z,97538.28
2019-04-03T03:55:22.898Z,97542.10
2019-04-03T03:58:35.050Z,97533.30
2019-04-03T04:01:48.917Z,97535.11
2019-04-03T04:05:02.787Z,97538.55
2019-04-03T04:08:17.268Z,97537.36
2019-04-03T04:11:32.398Z,97546.59
2019-04-03T04:14:46.421Z,97532.61
2019-04-03T04:18:00.403Z,97535.21
2019-04-03T04:21:14.402Z,97538.23
2019-04-03T04:24:28.745Z,97526.88
2019-04-03T04:27:42.453Z,97533.59
2019-04-03T04:30:56.265Z,97525.56
2019-04-03T04:34:09.884Z,97518.13
2019-04-03T04:37:24.648Z,97515.06
2019-04-03T04:40:38.951Z,97508.66
2019-04-03T04:43:52.411Z,97504.86
2019-04-03T04:47:06.262Z,97495.38
2019-04-03T04:50:25.303Z,97497.23
2019-04-03T04:53:38.338Z,97490.52
2019-04-03T04:56:51.822Z,97493.49
2019-04-03T05:00:05.713Z,97489.27
2019-04-03T05:03:21.127Z,97502.97
2019-04-03T05:06:34.576Z,97499.44
2019-04-03T05:09:48.033Z,97499.44
2019-04-03T05:13:01.844Z,97491.33
2019-04-03T05:16:15.303Z,97494.47
2019-04-03T05:19:28.773Z,97495.12
2019-04-03T05:22:42.504Z,97498.39
2019-04-03T05:25:56.535Z,97500.05
2019-04-03T05:29:10.396Z,97492.92
2019-04-03T05:32:23.951Z,97482.36
2019-04-03T05:35:37.718Z,97492.09
2019-04-03T05:38:53.770Z,97493.53
2019-04-03T05:42:06.841Z,97487.51
2019-04-03T05:45:20.882Z,97485.53
2019-04-03T05:48:34.687Z,97484.28
2019-04-03T05:51:48.332Z,97488.14
2019-04-03T05:55:01.786Z,97480.63
2019-04-03T05:58:16.294Z,97492.89
2019-04-03T06:01:30.223Z,97488.64
2019-04-03T06:04:43.683Z,97494.06
2019-04-03T06:07:57.378Z,97491.33
2019-04-03T06:11:11.095Z,97494.15
2019-04-03T06:14:24.612Z,97496.09
2019-04-03T06:17:38.335Z,97493.93
2019-04-03T06:20:51.790Z,97490.64
2019-04-03T06:24:05.263Z,97493.68
2019-04-03T06:27:19.652Z,97490.30
2019-04-03T06:30:33.778Z,97490.30
2019-04-03T06:33:47.655Z,97489.95
2019-04-03T06:37:01.517Z,97488.52
2019-04-03T06:40:15.434Z,97489.80
2019-04-03T06:43:30.446Z,97489.33
2019-04-03T06:46:44.540Z,97493.55
2019-04-03T06:49:58.040Z,97484.98
2019-04-03T06:53:11.892Z,97485.77
2019-04-03T06:56:25.749Z,97483.20
2019-04-03T06:59:39.513Z,97487.51
2019-04-03T07:02:53.519Z,97489.54
2019-04-03T07:06:07.073Z,97494.92
2019-04-03T07:09:24.353Z,97492.60
2019-04-03T07:12:36.424Z,97493.12
2019-04-03T07:15:49.900Z,97494.67
2019-04-03T07:19:03.579Z,97494.18
2019-04-03T07:22:17.599Z,97495.41
2019-04-03T07:25:31.959Z,97515.28
2019-04-03T07:28:46.787Z,97540.45
2019-04-03T07:32:00.719Z,97548.88
2019-04-03T07:35:14.448Z,97558.73
2019-04-03T07:38:28.010Z,97558.91
2019-04-03T07:41:41.888Z,97552.70
2019-04-03T07:44:56.078Z,97568.56
2019-04-03T07:48:09.560Z,97558.91
2019-04-03T07:51:23.025Z,97567.45
2019-04-03T07:54:37.020Z,97569.49
2019-04-03T07:57:50.939Z,97568.63
2019-04-03T08:01:04.868Z,97565.95
2019-04-03T08:04:18.956Z,97571.17
2019-04-03T08:07:32.804Z,97568.44
2019-04-03T08:10:46.364Z,97575.20
2019-04-03T08:14:00.149Z,97572.95
2019-04-03T08:17:13.903Z,97585.84
2019-04-03T08:20:30.465Z,97578.64
2019-04-03T08:23:42.920Z,97582.99
2019-04-03T08:26:56.811Z,97571.81
2019-04-03T08:30:11.339Z,97558.58
2019-04-03T08:33:27.057Z,97561.69
2019-04-03T08:36:40.514Z,97567.38
2019-04-03T08:39:57.244Z,97574.50
2019-04-03T08:43:09.700Z,97573.23
2019-04-03T08:46:23.159Z,97583.91
2019-04-03T08:49:37.194Z,97596.59
2019-04-03T08:52:51.032Z,97600.23
2019-04-03T08:56:04.892Z,97609.44
2019-04-03T08:59:18.360Z,97608.46
2019-04-03T09:02:32.086Z,97607.77
2019-04-03T09:05:45.711Z,97613.45
2019-04-03T09:08:59.282Z,97605.13
2019-04-03T09:12:12.735Z,97610.28
2019-04-03T09:15:28.216Z,97612.45
2019-04-03T09:18:42.157Z,97616.47
2019-04-03T09:21:55.851Z,97615.87
2019-04-03T09:25:09.776Z,97621.36
2019-04-03T09:28:23.961Z,97620.86
2019-04-03T09:31:37.576Z,97634.69
2019-04-03T09:34:51.078Z,97626.31
2019-04-03T09:38:04.864Z,97619.22
2019-04-03T09:41:19.235Z,97615.84
2019-04-03T09:44:33.740Z,97613.01
2019-04-03T09:47:47.244Z,97611.16
2019-04-03T09:51:01.034Z,97599.30
2019-04-03T09:54:14.786Z,97604.30
2019-04-03T09:57:28.703Z,97607.58
2019-04-03T10:00:43.673Z,97601.26
2019-04-03T10:03:57.133Z,97609.85
2019-04-03T10:07:11.005Z,97613.88
2019-04-03T10:10:26.124Z,97601.33
2019-04-03T10:13:39.971Z,97600.09
2019-04-03T10:16:53.473Z,97597.53
2019-04-03T10:20:08.177Z,97592.91
2019-04-03T10:23:22.223Z,97564.91
2019-04-03T10:26:36.065Z,97563.80
2019-04-03T10:29:50.661Z,97553.95
2019-04-03T10:33:04.572Z,97545.92
2019-04-03T10:36:18.641Z,97543.15
2019-04-03T10:39:32.291Z,97543.08
2019-04-03T10:42:46.109Z,97562.11
2019-04-03T10:46:00.051Z,97548.46
2019-04-03T10:49:13.758Z,97548.27
2019-04-03T10:52:27.511Z,97550.88
2019-04-03T10:55:41.217Z,97549.90
2019-04-03T10:58:55.311Z,97541.29
2019-04-03T11:02:09.315Z,97539.48
2019-04-03T11:05:22.843Z,97531.66
2019-04-03T11:08:36.442Z,97524.83
2019-04-03T11:11:50.103Z,97520.75
2019-04-03T11:15:04.875Z,97511.23
2019-04-03T11:18:18.888Z,97516.90
2019-04-03T11:21:34.461Z,97512.38
2019-04-03T11:24:47.937Z,97507.91
2019-04-03T11:28:05.049Z,97503.89
2019-04-03T11:31:25.343Z,97511.46
2019-04-03T11:34:32.589Z,97501.52
2019-04-03T11:37:46.055Z,97493.67
2019-04-03T11:41:11.435Z,97491.56
2019-04-03T11:44:15.014Z,97500.05
2019-04-03T11:47:28.937Z,97520.44
2019-04-03T11:50:42.527Z,97532.11
2019-04-03T11:53:55.979Z,97521.12
2019-04-03T11:57:09.724Z,97518.77
2019-04-03T12:00:28.148Z,97511.27
2019-04-03T12:03:42.297Z,97509.14
2019-04-03T12:06:56.531Z,97498.78
2019-04-03T12:10:10.658Z,97496.67
2019-04-03T12:13:24.157Z,97496.98
2019-04-03T12:16:37.620Z,97483.70
2019-04-03T12:19:52.314Z,97474.58
2019-04-03T12:23:06.085Z,97480.50
2019-04-03T12:26:21.248Z,97474.64
2019-04-03T12:29:35.464Z,97465.45
2019-04-03T12:32:50.258Z,97468.53
2019-04-03T12:36:06.668Z,97468.84
2019-04-03T12:39:27.853Z,97458.28
2019-04-03T12:42:41.733Z,97456.43
2019-04-03T12:45:56.164Z,97469.38
2019-04-03T12:49:10.731Z,97462.83
2019-04-03T12:52:24.585Z,97462.30
2019-04-03T12:55:38.311Z,97453.09
2019-04-03T12:58:51.799Z,97456.05
2019-04-03T13:02:05.677Z,97461.13
2019-04-03T13:05:19.570Z,97452.37
2019-04-03T13:08:33.148Z,97443.10
2019-04-03T13:11:49.749Z,97434.17
2019-04-03T13:15:05.777Z,97425.20
2019-04-03T13:18:19.938Z,97410.20
2019-04-03T13:21:33.834Z,97399.36
2019-04-03T13:24:48.340Z,97395.06
2019-04-03T13:28:03.957Z,97406.08
2019-04-03T13:31:18.011Z,97419.76
2019-04-03T13:34:32.640Z,97429.74
2019-04-03T13:37:46.639Z,97435.42
2019-04-03T13:41:00.537Z,97427.20
2019-04-03T13:44:14.496Z,97420.02
2019-04-03T13:47:28.321Z,97405.36
2019-04-03T13:50:44.994Z,97406.61
2019-04-03T13:53:58.387Z,97406.81
2019-04-03T13:57:14.713Z,97397.04
2019-04-03T14:00:27.859Z,97376.98
2019-04-03T14:03:41.486Z,97374.02
2019-04-03T14:06:55.293Z,97374.66
2019-04-03T14:10:09.858Z,97364.16
2019-04-03T14:13:23.543Z,97362.61
2019-04-03T14:16:37.153Z,97355.56
2019-04-03T14:19:52.306Z,97366.52
2019-04-03T14:23:06.637Z,97364.77
2019-04-03T14:26:20.383Z,97368.91
2019-04-03T14:29:34.162Z,97379.16
2019-04-03T14:32:47.648Z,97367.27
2019-04-03T14:36:01.548Z,97360.86
2019-04-03T14:39:15.093Z,97360.86
2019-04-03T14:42:28.826Z,97369.92
2019-04-03T14:45:44.974Z,97361.88
2019-04-03T14:49:01.277Z,97361.07
2019-04-03T14:52:15.021Z,97370.73
2019-04-03T14:55:30.259Z,97378.52
2019-04-03T14:58:44.313Z,97397.41
2019-04-03T15:01:58.159Z,97409.40
2019-04-03T15:05:12.038Z,97408.38
2019-04-03T15:08:25.980Z,97402.58
2019-04-03T15:11:39.553Z,97399.34
2019-04-03T15:14:54.528Z,97374.48
2019-04-03T15:18:10.043Z,97360.09
2019-04-03T15:21:24.831Z,97351.12
2019-04-03T15:24:42.660Z,97373.63
2019-04-03T15:27:54.878Z,97400.59
2019-04-03T15:31:09.180Z,97396.06
2019-04-03T15:34:23.172Z,97387.28
2019-04-03T15:37:39.907Z,97388.86
2019-04-03T15:40:52.405Z,97388.55
2019-04-03T15:44:06.025Z,97377.06
2019-04-03T15:47:33.223Z,97377.72
2019-04-03T15:50:37.673Z,97388.11
2019-04-03T15:53:50.854Z,97385.20
2019-04-03T15:57:04.368Z,97364.13
2019-04-03T16:00:18.456Z,97376.91
2019-04-03T16:03:31.989Z,97379.59
2019-04-03T16:06:45.508Z,97394.37
2019-04-03T16:09:59.088Z,97397.46
2019-04-03T16:13:15.038Z,97385.48
2019-04-03T16:16:29.322Z,97354.94
2019-04-03T16:19:44.520Z,97341.30
2019-04-03T16:22:58.422Z,97346.41
2019-04-03T16:26:12.599Z,97352.50
2019-04-03T16:29:26.105Z,97355.53
2019-04-03T16:32:39.985Z,97362.80
2019-04-03T16:35:53.878Z,97381.76
2019-04-03T16:39:08.250Z,97384.11
2019-04-03T16:42:22.723Z,97401.88
2019-04-03T16:45:37.630Z,97393.41
2019-04-03T16:48:52.169Z,97394.31
2019-04-03T16:52:06.234Z,97376.75
2019-04-03T16:55:19.908Z,97367.02
2019-04-03T16:58:33.943Z,97354.84
2019-04-03T17:01:47.435Z,97349.25
2019-04-03T17:05:01.037Z,97367.52
2019-04-03T17:08:14.582Z,97408.04
2019-04-03T17:11:30.133Z,97408.55
2019-04-03T17:14:45.678Z,97414.74
2019-04-03T17:18:02.073Z,97427.28
2019-04-03T17:21:15.846Z,97440.22
2019-04-03T17:24:41.033Z,97432.37
2019-04-03T17:27:55.222Z,97407.53
2019-04-03T17:31:00.922Z,97403.31
2019-04-03T17:34:14.710Z,97393.47
2019-04-03T17:37:30.272Z,97404.50
2019-04-03T17:40:43.621Z,97407.64
2019-04-03T17:43:57.234Z,97413.71
2019-04-03T17:47:10.701Z,97438.44
2019-04-03T17:50:24.175Z,97419.00
2019-04-03T17:53:37.760Z,97413.66
2019-04-03T17:56:51.249Z,97415.59
2019-04-03T18:00:08.237Z,97413.28
2019-04-03T18:03:21.694Z,97417.02
2019-04-03T18:06:35.278Z,97421.72
2019-04-03T18:09:48.740Z,97420.75
2019-04-03T18:13:02.560Z,97426.65
2019-04-03T18:16:16.135Z,97432.80
2019-04-03T18:19:37.495Z,97437.19
2019-04-03T18:22:45.118Z,97422.88
2019-04-03T18:25:59.708Z,97416.42
2019-04-03T18:29:13.732Z,97397.08
2019-04-03T18:32:29.757Z,97440.45
2019-04-03T18:35:42.839Z,97439.27
2019-04-03T18:38:56.330Z,97414.12
2019-04-03T18:42:09.819Z,97413.38
2019-04-03T18:45:25.521Z,97420.67
2019-04-03T18:48:38.685Z,97434.90
2019-04-03T18:51:52.339Z,97421.15
2019-04-03T18:55:06.314Z,97418.88
2019-04-03T18:58:20.174Z,97428.20
2019-04-03T19:01:33.763Z,97430.64
2019-04-03T19:04:47.350Z,97424.18
2019-04-03T19:08:12.507Z,97422.70
2019-04-03T19:11:16.739Z,97428.38
2019-04-03T19:14:31.997Z,97430.80
2019-04-03T19:17:45.627Z,97413.80
2019-04-03T19:20:59.720Z,97418.70
2019-04-03T19:24:13.455Z,97443.62
2019-04-03T19:27:26.946Z,97451.77
2019-04-03T19:30:40.774Z,97447.86
2019-04-03T19:33:54.298Z,97441.77
2019-04-03T19:37:08.191Z,97445.31
2019-04-03T19:40:21.659Z,97423.16
2019-04-03T19:43:35.265Z,97417.42
2019-04-03T19:46:48.748Z,97418.30
2019-04-03T19:50:03.188Z,97416.95
2019-04-03T19:53:16.673Z,97423.88
2019-04-03T19:56:30.264Z,97422.23
2019-04-03T19:59:43.771Z,97414.08
2019-04-03T20:02:57.221Z,97428.98
2019-04-03T20:06:11.065Z,97434.88
2019-04-03T20:09:24.577Z,97420.53
2019-04-03T20:12:38.421Z,97422.09
2019-04-03T20:15:54.537Z,97426.11
2019-04-03T20:19:08.568Z,97422.09
2019-04-03T20:22:22.040Z,97441.84
2019-04-03T20:25:35.649Z,97447.17
2019-04-03T20:28:49.118Z,97435.19
2019-04-03T20:32:02.609Z,97432.64
2019-04-03T20:35:18.211Z,97409.50
2019-04-03T20:38:31.600Z,97401.77
2019-04-03T20:41:45.222Z,97396.47
2019-04-03T20:44:58.670Z,97406.16
2019-04-03T20:48:12.251Z,97404.16
2019-04-03T20:51:25.824Z,97396.63
2019-04-03T20:54:39.586Z,97390.10
2019-04-03T20:57:55.843Z,97392.85
2019-04-03T21:01:08.776Z,97395.88
2019-04-03T21:04:22.281Z,97402.77
2019-04-03T21:07:35.859Z,97403.33
2019-04-03T21:10:49.441Z,97415.08
2019-04-03T21:14:05.615Z,97415.47
2019-04-03T21:17:19.411Z,97417.81
2019-04-03T21:20:33.303Z,97421.08
2019-04-03T21:23:47.096Z,97435.81
2019-04-03T21:27:00.587Z,97430.00
2019-04-03T21:30:14.389Z,97408.06
2019-04-03T21:33:30.499Z,97399.86
2019-04-03T21:36:43.239Z,97396.63
2019-04-03T21:39:56.742Z,97394.48
2019-04-03T21:43:10.233Z,97392.42
2019-04-03T21:46:23.693Z,97391.54
2019-04-03T21:49:37.183Z,97384.02
2019-04-03T21:52:53.577Z,97394.36
2019-04-03T21:56:06.153Z,97394.80
2019-04-03T21:59:19.944Z,97396.39
2019-04-03T22:02:33.779Z,97397.27
2019-04-03T22:05:47.545Z,97402.84
2019-04-03T22:09:01.045Z,97410.77
2019-04-03T22:12:14.936Z,97409.50
2019-04-03T22:15:28.423Z,97407.98
2019-04-03T22:18:41.999Z,97404.95
2019-04-03T22:21:55.754Z,97400.66
2019-04-03T22:25:09.556Z,97398.38
2019-04-03T22:28:23.011Z,97395.16
2019-04-03T22:31:36.759Z,97399.94
2019-04-03T22:34:50.347Z,97396.31
2019-04-03T22:38:05.368Z,97392.37
2019-04-03T22:41:19.194Z,97392.69
2019-04-03T22:44:32.670Z,97381.89
2019-04-03T22:47:47.657Z,97381.09
2019-04-03T22:51:01.336Z,97373.29
2019-04-03T22:54:15.050Z,97387.59
2019-04-03T22:57:28.522Z,97382.73
2019-04-03T23:00:42.126Z,97383.21
2019-04-03T23:03:55.709Z,97372.63
2019-04-03T23:07:09.215Z,97370.20
2019-04-03T23:10:22.793Z,97365.49
2019-04-03T23:13:36.305Z,97365.61
2019-04-03T23:16:49.755Z,97360.20
2019-04-03T23:20:04.036Z,97352.80
2019-04-03T23:23:17.558Z,97345.20
2019-04-03T23:26:32.251Z,97340.66
2019-04-03T23:29:46.997Z,97322.31
2019-04-03T23:33:00.539Z,97311.28
2019-04-03T23:36:14.003Z,97309.69
2019-04-03T23:39:28.029Z,97313.06
2019-04-03T23:42:41.963Z,97304.71
2019-04-03T23:45:55.470Z,97303.25
2019-04-03T23:49:08.937Z,97310.72
2019-04-03T23:52:22.790Z,97302.57
2019-04-03T23:55:55.938Z,97301.02
2019-04-03T23:59:12.664Z,97309.66
